.
WxDataArchive / Data Records for 2013-04-27
2013-04-26 April 2013 2013-04-28

Data Records for Saturday, 27 April 2013

Time	Temp	Chill	HIndex	Humid	Dewpt	 Wind 	HiWind	WindDir	Rain 	Barom 
-----	----	-----	------	-----	-----	------	------	-------	-----	----- 
00:00	43.2	43.2	43.2	75	35.8	0	0	---	0.00	30.339 
00:05	43.1	43.1	43.1	76	36.1	0	0	---	0.00	30.339 
00:10	42.8	42.8	42.8	77	36.1	0	0	---	0.00	30.339 
00:15	42.6	42.6	42.6	77	35.9	0	0	---	0.00	30.337 
00:20	42.6	42.6	42.6	79	36.6	0	0	---	0.00	30.337 
00:25	42.5	42.5	42.5	80	36.8	0	0	---	0.00	30.337 
00:30	42.3	42.3	42.3	81	36.9	0	0	---	0.00	30.339 
00:35	42.2	42.2	42.2	82	37.1	0	0	---	0.00	30.339 
00:40	42.1	42.1	42.1	82	37.0	0	0	---	0.00	30.339 
00:45	41.8	41.8	41.8	83	37.0	0	0	---	0.00	30.340 
00:50	41.5	41.5	41.5	83	36.7	0	0	---	0.00	30.340 
00:55	41.3	41.3	41.3	84	36.8	0	0	---	0.00	30.340 
01:00	41.2	41.2	41.2	84	36.7	0	0	---	0.00	30.342 
01:05	41.1	41.1	41.1	85	36.9	0	0	---	0.00	30.342 
01:10	40.9	40.9	40.9	85	36.7	0	0	---	0.00	30.342 
01:15	40.6	40.6	40.6	85	36.4	0	0	---	0.00	30.341 
01:20	40.3	40.3	40.3	85	36.2	0	0	---	0.00	30.341 
01:25	40.2	40.2	40.2	85	36.1	0	0	---	0.00	30.341 
01:30	40.1	40.1	40.1	85	36.0	0	0	---	0.00	30.339 
01:35	39.8	39.8	39.8	86	36.0	0	0	---	0.00	30.339 
01:40	39.8	39.8	39.8	86	36.0	0	0	---	0.00	30.339 
01:45	39.6	39.6	39.6	86	35.8	0	0	---	0.00	30.340 
01:50	39.5	39.5	39.5	86	35.7	0	0	---	0.00	30.340 
01:55	39.3	39.3	39.3	87	35.8	0	0	---	0.00	30.340 
02:00	39.2	39.2	39.2	87	35.7	0	0	---	0.00	30.340 
02:05	39.1	39.1	39.1	87	35.6	0	0	---	0.00	30.340 
02:10	38.9	38.9	38.9	87	35.4	0	0	---	0.00	30.340 
02:15	38.8	38.8	38.8	87	35.3	0	0	---	0.00	30.338 
02:20	38.6	38.6	38.6	87	35.1	0	0	---	0.00	30.338 
02:25	38.6	38.6	38.6	88	35.4	0	0	---	0.00	30.338 
02:30	38.6	38.6	38.6	88	35.4	0	0	---	0.00	30.335 
02:35	38.5	38.5	38.5	88	35.3	0	0	---	0.00	30.335 
02:40	38.5	38.5	38.5	88	35.3	0	0	---	0.00	30.335 
02:45	38.3	38.3	38.3	88	35.1	0	0	---	0.00	30.328 
02:50	38.3	38.3	38.3	88	35.1	0	0	---	0.00	30.328 
02:55	38.3	38.3	38.3	89	35.3	0	0	---	0.00	30.328 
03:00	38.3	38.3	38.3	89	35.3	0	0	---	0.00	30.325 
03:05	38.2	38.2	38.2	89	35.2	0	0	---	0.00	30.325 
03:10	37.9	37.9	37.9	89	35.0	0	0	---	0.00	30.325 
03:15	37.8	37.8	37.8	89	34.9	0	0	---	0.00	30.321 
03:20	37.8	37.8	37.8	89	34.9	0	0	---	0.00	30.321 
03:25	37.6	37.6	37.6	90	34.9	0	0	---	0.00	30.321 
03:30	37.5	37.5	37.5	90	34.8	0	0	---	0.00	30.318 
03:35	37.5	37.5	37.5	90	34.8	0	0	---	0.00	30.318 
03:40	37.5	37.5	37.5	90	34.8	0	0	---	0.00	30.318 
03:45	37.3	37.3	37.3	90	34.6	0	0	---	0.00	30.313 
03:50	37.2	37.2	37.2	90	34.5	0	0	---	0.00	30.313 
03:55	36.9	36.9	36.9	90	34.2	0	0	---	0.00	30.313 
04:00	36.9	36.9	36.9	90	34.2	0	0	---	0.00	30.309 
04:05	36.8	36.8	36.8	90	34.1	0	0	---	0.00	30.309 
04:10	36.8	36.8	36.8	90	34.1	0	0	---	0.00	30.309 
04:15	36.6	36.6	36.6	90	33.9	0	0	---	0.00	30.306 
04:20	36.3	36.3	36.3	90	33.7	0	0	---	0.00	30.306 
04:25	36.2	36.2	36.2	90	33.6	0	0	---	0.00	30.306 
04:30	36.0	36.0	36.0	90	33.4	0	0	---	0.00	30.308 
04:35	35.9	35.9	35.9	91	33.5	0	0	---	0.00	30.308 
04:40	35.9	35.9	35.9	91	33.5	0	0	---	0.00	30.308 
04:45	35.8	35.8	35.8	91	33.4	0	0	---	0.00	30.308 
04:50	35.8	35.8	35.8	91	33.4	0	0	---	0.00	30.308 
04:55	35.6	35.6	35.6	91	33.2	0	0	---	0.00	30.308 
05:00	35.6	35.6	35.6	91	33.2	0	0	---	0.00	30.309 
05:05	35.6	35.6	35.6	91	33.2	0	0	---	0.00	30.309 
05:10	35.6	35.6	35.6	91	33.2	0	0	---	0.00	30.309 
05:15	35.6	35.6	35.6	91	33.2	0	0	---	0.00	30.307 
05:20	35.5	35.5	35.5	91	33.1	0	0	---	0.00	30.307 
05:25	35.5	35.5	35.5	91	33.1	0	0	---	0.00	30.307 
05:30	35.5	35.5	35.5	92	33.4	0	0	---	0.00	30.307 
05:35	35.5	35.5	35.5	92	33.4	0	0	---	0.00	30.307 
05:40	35.3	35.3	35.3	92	33.2	0	0	---	0.00	30.307 
05:45	35.2	35.2	35.2	92	33.1	0	0	---	0.00	30.306 
05:50	35.0	35.0	35.0	92	32.9	0	0	---	0.00	30.306 
05:55	34.9	34.9	34.9	92	32.8	0	0	---	0.00	30.306 
06:00	34.7	34.7	34.7	92	32.6	0	0	---	0.00	30.306 
06:05	34.6	34.6	34.6	92	32.5	0	0	---	0.00	30.306 
06:10	34.6	34.6	34.6	92	32.5	0	0	---	0.00	30.306 
06:15	34.6	34.6	34.6	92	32.5	0	0	---	0.00	30.310 
06:20	34.6	34.6	34.6	92	32.5	0	0	---	0.00	30.310 
06:25	34.6	34.6	34.6	92	32.5	0	0	---	0.00	30.310 
06:30	34.6	34.6	34.6	92	32.5	0	0	---	0.00	30.308 
06:35	34.6	34.6	34.6	92	32.5	0	0	---	0.00	30.308 
06:40	34.6	34.6	34.6	92	32.5	0	0	---	0.00	30.308 
06:45	34.6	34.6	34.6	92	32.5	0	0	---	0.00	30.311 
06:50	34.6	34.6	34.6	92	32.5	0	0	---	0.00	30.311 
06:55	34.6	34.6	34.6	92	32.5	0	0	---	0.00	30.311 
07:00	34.6	34.6	34.6	92	32.5	0	0	---	0.00	30.311 
07:05	34.7	34.7	34.7	92	32.6	0	0	---	0.00	30.311 
07:10	34.9	34.9	34.9	92	32.8	0	0	---	0.00	30.311 
07:15	34.9	34.9	34.9	92	32.8	0	0	---	0.00	30.312 
07:20	35.2	35.2	35.2	93	33.4	0	0	---	0.00	30.312 
07:25	35.5	35.5	35.5	93	33.7	0	0	---	0.00	30.312 
07:30	35.8	35.8	35.8	93	34.0	0	0	---	0.00	30.311 
07:35	36.2	36.2	36.2	93	34.4	0	0	---	0.00	30.311 
07:40	36.9	36.9	36.9	94	35.3	0	0	---	0.00	30.311 
07:45	38.0	38.0	38.0	95	36.7	0	0	---	0.00	30.310 
07:50	39.3	39.3	39.3	95	38.0	0	0	---	0.00	30.310 
07:55	40.3	40.3	40.3	94	38.7	0	2	248	0.00	30.310 
08:00	41.1	41.1	41.1	92	39.0	1	2	248	0.00	30.308 
08:05	41.9	41.9	41.9	89	38.9	1	3	248	0.00	30.308 
08:10	42.6	42.6	42.6	85	38.4	1	3	248	0.00	30.308 
08:15	43.3	43.3	43.3	81	37.9	1	3	248	0.00	30.309 
08:20	44.2	44.2	44.2	79	38.1	1	3	248	0.00	30.309 
08:25	44.8	44.8	44.8	77	38.0	1	3	248	0.00	30.309 
08:30	45.1	45.1	45.1	76	38.0	1	3	248	0.00	30.307 
08:35	45.5	45.5	45.5	75	38.0	1	3	248	0.00	30.307 
08:40	46.1	46.1	46.1	74	38.3	0	2	248	0.00	30.307 
08:45	46.7	46.7	46.7	72	38.2	1	2	248	0.00	30.305 
08:50	47.4	47.4	47.4	71	38.5	1	2	248	0.00	30.305 
08:55	47.9	47.9	47.9	69	38.2	1	3	248	0.00	30.305 
09:00	48.8	48.8	48.8	67	38.3	0	2	248	0.00	30.303 
09:05	49.8	49.8	49.8	64	38.1	1	4	248	0.00	30.303 
09:10	50.7	50.7	50.7	61	37.7	0	3	248	0.00	30.303 
09:15	51.6	51.6	51.6	60	38.2	1	2	248	0.00	30.305 
09:20	52.2	52.2	52.2	59	38.3	1	2	248	0.00	30.305 
09:25	53.1	53.1	53.1	58	38.7	0	2	248	0.00	30.305 
09:30	53.6	53.6	53.6	56	38.3	1	4	248	0.00	30.301 
09:35	53.9	53.9	53.9	55	38.1	1	3	248	0.00	30.301 
09:40	54.5	54.5	54.5	51	36.7	1	4	248	0.00	30.301 
09:45	55.0	55.0	55.0	54	38.7	1	4	248	0.00	30.300 
09:50	55.6	55.6	55.6	53	38.7	1	3	248	0.00	30.300 
09:55	56.3	56.3	56.3	50	37.9	1	2	248	0.00	30.300 
10:00	56.7	56.7	56.7	51	38.8	1	4	248	0.00	30.293 
10:05	57.0	57.0	57.0	51	39.1	1	3	68	0.00	30.293 
10:10	57.6	57.6	57.6	49	38.6	1	4	68	0.00	30.293 
10:15	58.1	58.1	58.1	47	38.0	1	4	90	0.00	30.287 
10:20	58.9	58.9	58.9	46	38.2	1	3	90	0.00	30.287 
10:25	59.3	59.3	59.3	44	37.4	2	6	90	0.00	30.287 
10:30	59.6	59.6	59.6	42	36.5	1	5	90	0.00	30.284 
10:35	59.6	59.6	59.6	44	37.7	2	7	90	0.00	30.284 
10:40	59.9	59.9	59.9	42	36.8	2	5	90	0.00	30.284 
10:45	60.5	60.5	60.5	39	35.4	1	4	90	0.00	30.280 
10:50	60.9	60.9	60.9	39	35.8	2	7	90	0.00	30.280 
10:55	61.3	61.3	61.3	39	36.1	1	3	90	0.00	30.280 
11:00	61.6	61.6	61.6	38	35.7	1	4	90	0.00	30.269 
11:05	61.8	61.8	61.8	38	35.9	1	4	112	0.00	30.269 
11:10	62.1	62.1	62.1	35	34.1	1	4	112	0.00	30.269 
11:15	62.0	62.0	62.0	35	34.0	2	5	90	0.00	30.267 
11:20	62.1	62.1	62.1	36	34.8	1	5	90	0.00	30.267 
11:25	62.4	62.4	62.4	35	34.4	2	6	90	0.00	30.267 
11:30	62.6	62.6	62.6	36	35.3	2	7	90	0.00	30.261 
11:35	62.0	62.0	62.0	35	34.0	4	9	112	0.00	30.261 
11:40	61.5	61.5	61.5	33	32.1	4	8	90	0.00	30.261 
11:45	61.8	61.8	61.8	36	34.6	3	10	90	0.00	30.262 
11:50	62.3	62.3	62.3	32	32.1	2	7	112	0.00	30.262 
11:55	62.3	62.3	62.3	33	32.8	4	11	112	0.00	30.262 
12:00	62.6	62.6	62.6	33	33.1	2	7	112	0.00	30.255 
12:05	62.9	62.9	62.9	31	31.8	2	6	112	0.00	30.255 
12:10	63.1	63.1	63.1	36	35.7	2	6	90	0.00	30.255 
12:15	63.5	63.5	63.5	33	33.9	2	5	90	0.00	30.256 
12:20	63.9	63.9	63.9	33	34.2	3	6	112	0.00	30.256 
12:25	64.0	64.0	64.0	32	33.5	2	5	90	0.00	30.256 
12:30	64.5	64.5	64.5	31	33.2	3	12	90	0.00	30.252 
12:35	64.5	64.5	64.5	30	32.4	2	6	112	0.00	30.252 
12:40	64.5	64.5	64.5	30	32.4	4	7	90	0.00	30.252 
12:45	64.7	64.7	64.7	34	35.7	2	7	112	0.00	30.243 
12:50	65.0	65.0	65.0	31	33.6	4	7	90	0.00	30.243 
12:55	65.2	65.2	65.2	31	33.8	2	5	90	0.00	30.243 
13:00	65.5	65.5	65.5	31	34.1	3	6	135	0.00	30.239 
13:05	65.2	65.2	65.2	35	36.9	2	6	90	0.00	30.239 
13:10	65.3	65.3	65.3	31	33.9	2	5	90	0.00	30.239 
13:15	65.2	65.2	65.2	28	31.3	3	6	90	0.00	30.236 
13:20	65.0	65.0	65.0	29	32.0	3	7	90	0.00	30.236 
13:25	65.5	65.5	65.5	30	33.2	3	9	90	0.00	30.236 
13:30	65.8	65.8	65.8	32	35.1	2	6	112	0.00	30.240 
13:35	66.0	66.0	66.0	29	32.8	2	5	112	0.00	30.240 
13:40	66.0	66.0	66.0	32	35.3	3	10	112	0.00	30.240 
13:45	66.0	66.0	66.0	31	34.5	2	5	135	0.00	30.227 
13:50	66.3	66.3	66.3	33	36.3	2	7	90	0.00	30.227 
13:55	66.8	66.8	66.8	32	36.0	2	5	90	0.00	30.227 
14:00	66.9	66.9	66.9	31	35.3	3	9	90	0.00	30.224 
14:05	67.1	67.1	67.1	28	32.9	3	7	90	0.00	30.224 
14:10	67.3	67.3	67.3	27	32.2	2	6	112	0.00	30.224 
14:15	67.3	67.3	67.3	28	33.1	3	7	112	0.00	30.221 
14:20	67.3	67.3	67.3	29	33.9	3	9	90	0.00	30.221 
14:25	67.3	67.3	67.3	30	34.8	2	9	112	0.00	30.221 
14:30	67.8	67.8	67.8	28	33.5	2	5	112	0.00	30.209 
14:35	67.9	67.9	67.9	30	35.3	3	9	112	0.00	30.209 
14:40	67.8	67.8	67.8	27	32.6	3	7	90	0.00	30.209 
14:45	67.4	67.4	67.4	30	34.9	3	7	90	0.00	30.206 
14:50	67.6	67.6	67.6	28	33.3	3	10	90	0.00	30.206 
14:55	67.4	67.4	67.4	27	32.3	3	8	112	0.00	30.206 
15:00	67.3	67.3	67.3	30	34.8	3	10	90	0.00	30.194 
15:05	67.6	67.6	67.6	32	36.7	3	11	112	0.00	30.194 
15:10	67.9	67.9	67.9	29	34.5	3	10	90	0.00	30.194 
15:15	67.9	67.9	67.9	30	35.3	3	11	45	0.00	30.192 
15:20	67.8	67.8	67.8	30	35.2	2	5	112	0.00	30.192 
15:25	67.9	67.9	67.9	29	34.5	3	10	90	0.00	30.192 
15:30	67.9	67.9	67.9	28	33.6	2	6	112	0.00	30.184 
15:35	68.1	68.1	68.1	30	35.5	2	5	112	0.00	30.184 
15:40	68.3	68.3	68.3	28	33.9	3	5	90	0.00	30.184 
15:45	68.3	68.3	68.3	29	34.8	2	5	135	0.00	30.175 
15:50	68.4	68.4	68.4	31	36.6	2	4	90	0.00	30.175 
15:55	68.4	68.4	68.4	30	35.7	3	6	112	0.00	30.175 
16:00	68.4	68.4	68.4	29	34.9	2	4	45	0.00	30.166 
16:05	68.6	68.6	68.6	30	35.9	1	5	112	0.00	30.166 
16:10	68.9	68.9	68.9	28	34.4	2	5	112	0.00	30.166 
16:15	68.8	68.8	68.8	30	36.1	2	5	90	0.00	30.158 
16:20	68.6	68.6	68.6	30	35.9	3	9	112	0.00	30.158 
16:25	68.3	68.3	68.3	31	36.5	3	11	90	0.00	30.158 
16:30	68.3	68.3	68.3	31	36.5	2	6	90	0.00	30.148 
16:35	68.3	68.3	68.3	30	35.7	3	11	90	0.00	30.148 
16:40	67.9	67.9	67.9	31	36.1	4	9	112	0.00	30.148 
16:45	67.6	67.6	67.6	30	35.1	3	7	112	0.00	30.144 
16:50	67.9	67.9	67.9	30	35.3	3	7	90	0.00	30.144 
16:55	68.1	68.1	68.1	31	36.3	2	5	90	0.00	30.144 
17:00	68.1	68.1	68.1	32	37.1	2	6	90	0.00	30.139 
17:05	68.3	68.3	68.3	32	37.3	2	5	90	0.00	30.139 
17:10	68.1	68.1	68.1	29	34.6	2	5	112	0.00	30.139 
17:15	68.1	68.1	68.1	31	36.3	3	7	112	0.00	30.135 
17:20	68.1	68.1	68.1	34	38.7	3	12	112	0.00	30.135 
17:25	68.3	68.3	68.3	32	37.3	2	6	112	0.00	30.135 
17:30	68.3	68.3	68.3	31	36.5	3	6	112	0.00	30.135 
17:35	68.3	68.3	68.3	32	37.3	2	5	90	0.00	30.135 
17:40	68.3	68.3	68.3	31	36.5	2	5	112	0.00	30.135 
17:45	68.4	68.4	68.4	31	36.6	2	5	112	0.00	30.131 
17:50	68.6	68.6	68.6	33	38.3	1	4	112	0.00	30.131 
17:55	68.8	68.8	68.8	33	38.5	1	4	112	0.00	30.131 
18:00	68.6	68.6	68.6	33	38.3	2	4	112	0.00	30.125 
18:05	68.4	68.4	68.4	31	36.6	3	5	112	0.00	30.125 
18:10	68.3	68.3	68.3	31	36.5	2	6	90	0.00	30.125 
18:15	68.1	68.1	68.1	32	37.1	2	4	90	0.00	30.122 
18:20	67.9	67.9	67.9	33	37.7	2	4	90	0.00	30.122 
18:25	67.8	67.8	67.8	33	37.6	2	4	112	0.00	30.122 
18:30	67.6	67.6	67.6	33	37.5	2	6	112	0.00	30.125 
18:35	67.3	67.3	67.3	31	35.6	2	6	112	0.00	30.125 
18:40	67.1	67.1	67.1	31	35.4	2	4	112	0.00	30.125 
18:45	66.9	66.9	66.9	33	36.9	2	6	112	0.00	30.117 
18:50	66.8	66.8	66.8	35	38.3	1	5	112	0.00	30.117 
18:55	66.6	66.6	66.6	33	36.6	2	4	135	0.00	30.117 
19:00	66.6	66.6	66.6	34	37.3	1	3	135	0.00	30.115 
19:05	66.3	66.3	66.3	34	37.1	1	3	112	0.00	30.115 
19:10	66.1	66.1	66.1	34	36.9	2	4	90	0.00	30.115 
19:15	66.0	66.0	66.0	35	37.6	2	5	90	0.00	30.108 
19:20	65.8	65.8	65.8	35	37.4	1	4	135	0.00	30.108 
19:25	65.6	65.6	65.6	35	37.2	1	4	112	0.00	30.108 
19:30	65.5	65.5	65.5	35	37.1	1	3	135	0.00	30.099 
19:35	65.3	65.3	65.3	36	37.7	1	3	112	0.00	30.099 
19:40	65.2	65.2	65.2	36	37.6	1	3	135	0.00	30.099 
19:45	65.0	65.0	65.0	36	37.4	1	4	135	0.00	30.097 
19:50	64.8	64.8	64.8	39	39.3	0	1	135	0.00	30.097 
19:55	64.7	64.7	64.7	39	39.2	0	2	135	0.00	30.097 
20:00	64.5	64.5	64.5	38	38.3	0	2	135	0.00	30.095 
20:05	64.3	64.3	64.3	39	38.8	0	1	112	0.00	30.095 
20:10	64.2	64.2	64.2	39	38.7	0	2	112	0.00	30.095 
20:15	64.0	64.0	64.0	40	39.2	0	2	135	0.00	30.089 
20:20	63.9	63.9	63.9	41	39.7	0	2	135	0.00	30.089 
20:25	63.5	63.5	63.5	42	40.0	0	1	135	0.00	30.089 
20:30	63.2	63.2	63.2	43	40.3	0	1	135	0.00	30.085 
20:35	62.9	62.9	62.9	43	40.1	0	0	---	0.00	30.085 
20:40	62.7	62.7	62.7	43	39.9	0	1	135	0.00	30.085 
20:45	62.6	62.6	62.6	43	39.8	0	1	135	0.00	30.077 
20:50	62.4	62.4	62.4	44	40.2	0	0	---	0.00	30.077 
20:55	62.3	62.3	62.3	43	39.5	0	0	---	0.00	30.077 
21:00	62.1	62.1	62.1	44	39.9	0	0	---	0.00	30.076 
21:05	62.0	62.0	62.0	43	39.2	0	1	135	0.00	30.076 
21:10	61.8	61.8	61.8	44	39.7	0	0	---	0.00	30.076 
21:15	61.8	61.8	61.8	44	39.7	0	1	135	0.00	30.067 
21:20	61.6	61.6	61.6	44	39.5	0	1	135	0.00	30.067 
21:25	61.6	61.6	61.6	46	40.6	0	1	135	0.00	30.067 
21:30	61.3	61.3	61.3	46	40.3	0	1	135	0.00	30.067 
21:35	61.2	61.2	61.2	46	40.3	0	1	135	0.00	30.067 
21:40	61.2	61.2	61.2	47	40.8	0	1	135	0.00	30.067 
21:45	61.0	61.0	61.0	47	40.6	0	1	135	0.00	30.068 
21:50	60.9	60.9	60.9	47	40.5	0	2	135	0.00	30.068 
21:55	60.9	60.9	60.9	48	41.1	0	1	135	0.00	30.068 
22:00	60.7	60.7	60.7	49	41.4	0	1	135	0.00	30.069 
22:05	60.5	60.5	60.5	50	41.8	0	1	135	0.00	30.069 
22:10	60.4	60.4	60.4	52	42.7	0	1	135	0.00	30.069 
22:15	59.9	59.9	59.9	53	42.7	0	2	135	0.00	30.067 
22:20	59.8	59.8	59.8	53	42.6	0	2	135	0.00	30.067 
22:25	59.8	59.8	59.8	54	43.1	0	2	135	0.00	30.067 
22:30	59.6	59.6	59.6	54	42.9	0	1	135	0.00	30.067 
22:35	59.6	59.6	59.6	55	43.4	0	2	135	0.00	30.067 
22:40	59.5	59.5	59.5	55	43.3	0	1	135	0.00	30.067 
22:45	59.5	59.5	59.5	55	43.3	0	1	135	0.00	30.067 
22:50	59.5	59.5	59.5	56	43.8	0	1	135	0.00	30.067 
22:55	59.5	59.5	59.5	56	43.8	0	2	135	0.00	30.067 
23:00	59.5	59.5	59.5	56	43.8	0	3	135	0.00	30.060 
23:05	59.5	59.5	59.5	56	43.8	0	1	135	0.00	30.060 
23:10	59.3	59.3	59.3	56	43.6	0	1	135	0.00	30.060 
23:15	59.3	59.3	59.3	56	43.6	0	1	135	0.00	30.050 
23:20	59.3	59.3	59.3	57	44.1	0	2	135	0.00	30.050 
23:25	59.2	59.2	59.2	57	44.0	0	2	135	0.00	30.050 
23:30	59.2	59.2	59.2	58	44.4	0	2	135	0.00	30.050 
23:35	59.2	59.2	59.2	58	44.4	0	2	135	0.00	30.050 
23:40	59.0	59.0	59.0	59	44.7	0	2	135	0.00	30.050 
23:45	59.0	59.0	59.0	59	44.7	0	2	135	0.00	30.045 
23:50	58.9	58.9	58.9	60	45.0	0	1	135	0.00	30.045 
23:55	58.7	58.7	58.7	60	44.8	0	1	135	0.00	30.045 

CoCoRaHS
IN-AL-39
A2 Web Hosting
Creative Commons License
GoDaddy
search engine by freefind advanced

loaded 2018-11-17 15:15:04 • last modified 2010-11-18 10:43:29
Privacy PolicyDisclaimer
• wx.awcolley.com is powered by PmWiki v.2002016 •
• all content (unless otherwise noted) © 2018 A W Colley